Time;durP1;ratioP1;P1;durP2;ratioP2;P2;SDS_P1;SDS_P2;PMS_P1;PMS_P2;Temp;Humidity;BMP_temperature;BMP_pressure;BME280_temperature;BME280_humidity;BME280_pressure;Samples;Min_cycle;Max_cycle;Signal;HPM_P1;HPM_P2
2021/07/30 00:00:09;;;;;;;16.80;2.50;;;45.90;18.30;;;;;;5034467;28;20067;-62
2021/07/30 00:02:36;;;;;;;6.38;2.03;;;45.80;19.20;;;;;;5030616;28;20521;-64
2021/07/30 00:05:03;;;;;;;7.18;2.05;;;45.90;18.40;;;;;;5030377;28;20414;-63
2021/07/30 00:07:29;;;;;;;11.10;2.30;;;45.90;18.60;;;;;;5034156;28;20060;-65
2021/07/30 00:09:56;;;;;;;21.23;3.00;;;45.70;26.00;;;;;;5036837;28;20039;-65
2021/07/30 00:12:22;;;;;;;25.40;2.70;;;45.90;18.60;;;;;;5029397;28;20071;-62
2021/07/30 00:14:49;;;;;;;25.27;2.60;;;45.70;18.40;;;;;;5036195;28;20521;-65
2021/07/30 00:17:15;;;;;;;25.50;2.35;;;45.60;19.20;;;;;;5074566;28;20094;-64
2021/07/30 00:19:42;;;;;;;27.45;2.95;;;45.60;19.60;;;;;;5071716;28;20070;-63
2021/07/30 00:22:08;;;;;;;18.85;2.25;;;45.30;18.80;;;;;;5078004;28;20096;-64
2021/07/30 00:24:35;;;;;;;16.65;2.63;;;44.90;18.90;;;;;;5073930;28;20143;-65
2021/07/30 00:27:01;;;;;;;16.58;2.55;;;44.50;19.30;;;;;;5070920;28;20066;-65
2021/07/30 00:29:28;;;;;;;17.90;2.50;;;44.50;19.60;;;;;;5077514;28;20151;-64
2021/07/30 00:31:54;;;;;;;19.17;2.90;;;44.50;19.80;;;;;;5072008;28;20076;-64
2021/07/30 00:34:21;;;;;;;25.73;3.03;;;44.40;19.70;;;;;;5074686;28;20510;-65
2021/07/30 00:36:47;;;;;;;16.45;2.83;;;44.40;19.50;;;;;;5055799;28;20039;-64
2021/07/30 00:39:14;;;;;;;20.38;2.70;;;44.20;19.40;;;;;;5075574;28;20111;-64
2021/07/30 00:41:40;;;;;;;28.52;2.58;;;44.00;19.50;;;;;;5058369;28;20745;-63
2021/07/30 00:44:08;;;;;;;16.77;1.88;;;43.80;19.70;;;;;;5077819;28;20149;-62
2021/07/30 00:46:36;;;;;;;15.98;2.33;;;43.60;19.80;;;;;;5069886;28;20086;-62
2021/07/30 00:49:04;;;;;;;18.23;2.60;;;43.40;19.90;;;;;;5077240;28;20073;-63
2021/07/30 00:51:30;;;;;;;17.23;2.00;;;43.30;19.80;;;;;;5074507;28;20093;-63
2021/07/30 00:53:57;;;;;;;13.80;2.22;;;43.20;20.20;;;;;;5074655;28;20072;-63
2021/07/30 00:56:24;;;;;;;7.07;1.40;;;43.20;20.00;;;;;;5079013;28;20093;-63
2021/07/30 00:58:51;;;;;;;18.83;2.67;;;43.20;20.40;;;;;;5072769;28;20513;-64
2021/07/30 01:01:18;;;;;;;9.30;1.95;;;43.30;22.00;;;;;;5072018;28;20119;-64
2021/07/30 01:03:45;;;;;;;12.45;2.05;;;43.10;21.00;;;;;;5078782;28;20069;-63
2021/07/30 01:06:12;;;;;;;10.02;1.75;;;43.10;21.80;;;;;;5076679;28;20130;-64
2021/07/30 01:08:39;;;;;;;8.20;1.65;;;43.00;20.90;;;;;;5057519;28;20104;-64
2021/07/30 01:11:05;;;;;;;5.75;1.40;;;43.00;20.60;;;;;;5078782;28;20080;-63
2021/07/30 01:13:32;;;;;;;5.18;1.73;;;43.10;20.50;;;;;;5076565;28;20077;-63
2021/07/30 01:16:02;;;;;;;9.80;1.73;;;43.10;20.20;;;;;;5049649;28;20464;-63
2021/07/30 01:18:28;;;;;;;14.65;2.08;;;43.10;20.30;;;;;;5041233;28;20538;-63
2021/07/30 01:21:11;;;;;;;6.20;1.98;;;43.10;20.60;;;;;;5043170;28;20069;-65
2021/07/30 01:23:38;;;;;;;14.10;1.70;;;43.00;20.30;;;;;;5039875;28;20113;-65
2021/07/30 01:26:04;;;;;;;6.80;1.75;;;43.10;19.40;;;;;;5040040;28;20069;-64
2021/07/30 01:28:31;;;;;;;10.63;2.20;;;43.10;19.20;;;;;;5039654;28;20073;-65
2021/07/30 01:31:00;;;;;;;9.50;2.05;;;43.10;19.70;;;;;;5038510;28;20351;-65
2021/07/30 01:33:27;;;;;;;11.55;2.08;;;43.10;19.30;;;;;;5037113;28;20077;-65
2021/07/30 01:35:53;;;;;;;11.63;1.98;;;43.10;19.70;;;;;;5034129;28;20731;-62
2021/07/30 01:38:20;;;;;;;14.52;2.38;;;43.10;19.50;;;;;;5038281;28;20505;-63
2021/07/30 01:40:46;;;;;;;18.23;2.40;;;43.10;19.90;;;;;;5036286;28;20095;-63
2021/07/30 01:43:13;;;;;;;20.08;2.63;;;43.10;19.50;;;;;;5039424;28;20070;-63
2021/07/30 01:45:41;;;;;;;14.32;2.05;;;42.80;28.00;;;;;;5041759;28;20140;-63
2021/07/30 01:48:07;;;;;;;8.20;2.00;;;43.10;20.00;;;;;;5038666;28;20107;-63
2021/07/30 01:50:34;;;;;;;8.10;2.03;;;42.90;38.40;;;;;;5037041;28;20039;-63
2021/07/30 01:53:01;;;;;;;9.55;2.10;;;43.00;20.10;;;;;;5039944;28;20482;-63
2021/07/30 01:55:28;;;;;;;8.98;2.00;;;43.10;19.70;;;;;;5037850;28;20436;-63
2021/07/30 01:57:54;;;;;;;13.02;2.30;;;43.10;20.00;;;;;;5036031;28;20084;-63
2021/07/30 02:00:21;;;;;;;16.23;2.65;;;42.90;20.40;;;;;;5037974;28;20070;-63
2021/07/30 02:02:47;;;;;;;14.00;2.80;;;42.90;20.40;;;;;;5038556;28;20431;-63
2021/07/30 02:05:14;;;;;;;14.63;3.00;;;42.40;36.80;;;;;;5035746;28;20494;-62
2021/07/30 02:07:40;;;;;;;10.68;1.98;;;42.80;19.70;;;;;;5038904;28;20064;-64
2021/07/30 02:10:07;;;;;;;167.60;12.95;;;42.70;20.20;;;;;;5038382;28;20186;-63
2021/07/30 02:15:20;;;;;;;195.95;15.88;;;42.30;23.60;;;;;;5048143;28;20129;-63
2021/07/30 02:17:47;;;;;;;212.00;18.17;;;41.80;24.30;;;;;;5076959;28;20589;-63
2021/07/30 02:20:13;;;;;;;215.80;16.70;;;41.30;24.60;;;;;;5075638;28;20132;-63
2021/07/30 02:22:40;;;;;;;157.10;15.75;;;41.20;37.20;;;;;;5079542;28;20069;-63
2021/07/30 02:25:06;;;;;;;144.73;14.13;;;41.00;25.70;;;;;;5077303;28;20045;-65
2021/07/30 02:27:33;;;;;;;172.80;15.43;;;40.80;25.50;;;;;;5074897;28;20435;-63
2021/07/30 02:29:59;;;;;;;156.75;13.90;;;40.80;26.00;;;;;;5077647;28;20073;-63
2021/07/30 02:32:26;;;;;;;123.97;12.27;;;40.60;25.80;;;;;;5080823;28;20076;-63
2021/07/30 02:34:52;;;;;;;127.70;13.20;;;40.50;26.00;;;;;;5072454;28;20081;-62
2021/07/30 02:37:19;;;;;;;120.18;12.38;;;40.40;26.20;;;;;;5075404;28;20101;-63
2021/07/30 02:39:45;;;;;;;104.43;10.90;;;40.20;26.20;;;;;;5076375;28;20534;-62
2021/07/30 02:42:12;;;;;;;95.13;10.07;;;40.10;26.20;;;;;;5079126;28;20102;-64
2021/07/30 02:44:38;;;;;;;72.18;9.00;;;40.00;26.20;;;;;;5074392;28;20069;-63
2021/07/30 02:47:05;;;;;;;76.88;8.27;;;40.00;26.30;;;;;;5073816;28;21555;-64
2021/07/30 02:49:32;;;;;;;77.00;7.38;;;39.90;27.00;;;;;;5075742;28;20127;-64
2021/07/30 02:51:58;;;;;;;78.60;7.10;;;39.80;26.70;;;;;;5077125;28;20077;-64
2021/07/30 02:54:24;;;;;;;52.72;6.43;;;39.70;27.00;;;;;;5077312;28;20167;-63
2021/07/30 02:56:51;;;;;;;65.90;7.20;;;39.70;27.20;;;;;;5076925;28;20526;-63
2021/07/30 02:59:17;;;;;;;70.97;8.13;;;39.60;27.50;;;;;;5059429;28;20081;-63
2021/07/30 03:01:44;;;;;;;53.22;6.88;;;39.40;27.80;;;;;;5075952;28;20160;-62
2021/07/30 03:04:10;;;;;;;67.50;7.70;;;39.30;28.20;;;;;;5081155;28;20119;-63
2021/07/30 03:06:37;;;;;;;57.20;7.20;;;39.30;28.30;;;;;;5081449;28;20124;-64
2021/07/30 03:09:03;;;;;;;41.17;5.65;;;39.30;28.90;;;;;;5075965;28;20453;-64
2021/07/30 03:11:30;;;;;;;56.05;6.55;;;39.30;28.60;;;;;;5085309;28;20160;-63
2021/07/30 03:13:56;;;;;;;37.30;5.43;;;39.20;29.00;;;;;;5084873;28;20068;-65
2021/07/30 03:16:23;;;;;;;44.35;6.43;;;39.10;28.90;;;;;;5076038;28;20200;-63
2021/07/30 03:18:49;;;;;;;39.13;5.72;;;39.10;29.00;;;;;;5073445;28;20100;-64
2021/07/30 03:21:16;;;;;;;36.28;5.55;;;39.10;29.10;;;;;;5072878;28;20092;-64
2021/07/30 03:23:42;;;;;;;36.50;4.80;;;39.00;29.30;;;;;;5080960;28;20069;-64
2021/07/30 03:26:09;;;;;;;33.42;5.28;;;39.00;29.40;;;;;;5077830;28;20541;-63
2021/07/30 03:28:35;;;;;;;31.05;5.13;;;39.00;29.50;;;;;;5075713;28;20095;-63
2021/07/30 03:31:02;;;;;;;37.20;5.70;;;39.00;29.60;;;;;;5073987;28;20065;-63
2021/07/30 03:33:28;;;;;;;33.40;5.07;;;38.90;29.60;;;;;;5081705;28;20073;-63
2021/07/30 03:35:55;;;;;;;28.73;5.45;;;38.90;29.70;;;;;;5071790;28;20143;-63
2021/07/30 03:38:22;;;;;;;43.42;6.75;;;38.80;29.70;;;;;;5055198;28;20080;-63
2021/07/30 03:40:49;;;;;;;28.67;6.80;;;38.70;29.80;;;;;;5073155;28;20122;-63
2021/07/30 03:43:15;;;;;;;34.58;6.15;;;38.70;30.00;;;;;;5075913;28;20077;-62
2021/07/30 03:45:42;;;;;;;31.77;7.63;;;38.60;30.00;;;;;;5074836;28;20080;-64
2021/07/30 03:48:08;;;;;;;40.08;11.23;;;38.60;30.20;;;;;;5073650;28;20427;-63
2021/07/30 03:50:35;;;;;;;36.30;6.05;;;38.50;30.20;;;;;;5072003;28;20076;-62
2021/07/30 03:53:02;;;;;;;34.75;7.15;;;38.30;29.90;;;;;;5076515;28;20079;-63
2021/07/30 03:55:31;;;;;;;37.15;7.07;;;38.20;30.00;;;;;;5074697;28;20104;-63
2021/07/30 03:57:58;;;;;;;36.20;6.65;;;38.20;30.20;;;;;;5078143;28;20076;-64
2021/07/30 04:00:25;;;;;;;31.23;6.45;;;38.70;52.90;;;;;;5072992;28;20126;-63
2021/07/30 04:02:54;;;;;;;21.35;5.30;;;38.00;53.80;;;;;;5082206;28;20386;-64
2021/07/30 04:05:21;;;;;;;28.70;5.45;;;38.10;30.30;;;;;;5063737;28;20075;-63
2021/07/30 04:07:47;;;;;;;18.48;5.68;;;38.90;43.00;;;;;;5075164;28;20133;-63
2021/07/30 04:10:13;;;;;;;14.73;4.35;;;38.00;30.30;;;;;;5076894;28;20073;-63
2021/07/30 04:12:40;;;;;;;26.63;5.43;;;38.00;30.40;;;;;;5077561;28;20451;-66
2021/07/30 04:15:08;;;;;;;23.42;4.63;;;38.00;36.00;;;;;;5074704;28;20165;-64
2021/07/30 04:17:37;;;;;;;22.23;4.93;;;38.00;30.50;;;;;;5077547;28;20121;-64
2021/07/30 04:20:04;;;;;;;26.38;4.68;;;37.90;57.80;;;;;;5071948;28;20049;-63
2021/07/30 04:22:31;;;;;;;15.70;5.15;;;37.90;47.70;;;;;;5074666;28;20104;-63
2021/07/30 04:25:01;;;;;;;32.85;5.70;;;38.00;30.80;;;;;;5056420;28;20069;-63
2021/07/30 04:27:27;;;;;;;32.75;5.95;;;38.00;30.80;;;;;;5074955;28;20071;-63
2021/07/30 04:29:54;;;;;;;25.52;5.20;;;37.90;43.70;;;;;;5076973;28;20100;-64
2021/07/30 04:32:20;;;;;;;19.02;4.97;;;37.60;62.40;;;;;;5072812;28;20070;-62
2021/07/30 04:34:46;;;;;;;30.05;5.72;;;37.80;30.60;;;;;;5061812;28;20082;-64
2021/07/30 04:37:13;;;;;;;32.55;5.25;;;37.80;30.20;;;;;;5078630;28;20133;-63
2021/07/30 04:39:39;;;;;;;21.63;6.13;;;37.80;30.40;;;;;;5080019;28;20127;-63
2021/07/30 04:42:06;;;;;;;32.10;6.07;;;37.50;39.50;;;;;;5081511;28;20073;-63
2021/07/30 04:44:36;;;;;;;19.25;4.80;;;37.70;35.70;;;;;;5079598;28;20160;-68
2021/07/30 04:47:02;;;;;;;31.42;5.97;;;37.80;36.60;;;;;;5061099;28;20073;-63
2021/07/30 04:49:29;;;;;;;22.58;5.35;;;37.70;35.10;;;;;;5077958;28;20080;-64
2021/07/30 04:51:55;;;;;;;21.80;5.13;;;38.10;69.00;;;;;;5077631;28;20479;-63
2021/07/30 04:54:22;;;;;;;26.00;5.15;;;37.50;30.50;;;;;;5077563;28;20099;-65
2021/07/30 04:56:48;;;;;;;35.35;5.45;;;37.50;30.20;;;;;;5080320;28;20629;-65
2021/07/30 04:59:15;;;;;;;18.92;4.78;;;37.60;37.30;;;;;;5079694;28;20488;-64
2021/07/30 05:01:42;;;;;;;20.70;4.03;;;37.60;59.60;;;;;;5078814;28;20129;-63
2021/07/30 05:04:12;;;;;;;59.47;5.95;;;37.40;34.10;;;;;;5078607;28;20016;-64
2021/07/30 05:06:38;;;;;;;23.08;4.60;;;37.20;42.30;;;;;;5077449;28;20054;-65
2021/07/30 05:09:05;;;;;;;20.25;4.97;;;37.50;30.40;;;;;;5079110;28;20141;-64
2021/07/30 05:11:31;;;;;;;29.15;5.32;;;37.40;70.50;;;;;;5081106;28;20025;-63
2021/07/30 05:13:58;;;;;;;30.85;5.60;;;37.50;30.90;;;;;;5074339;28;20139;-61
2021/07/30 05:16:24;;;;;;;23.05;5.18;;;37.00;59.90;;;;;;5076224;28;20047;-61
2021/07/30 05:18:51;;;;;;;20.70;5.75;;;37.30;30.40;;;;;;5056524;28;20059;-62
2021/07/30 05:21:17;;;;;;;28.63;5.50;;;;;;;;;;5084172;28;20159;-62
2021/07/30 05:23:44;;;;;;;26.63;5.35;;;37.10;52.30;;;;;;5077169;28;20043;-61
2021/07/30 05:26:11;;;;;;;23.63;5.60;;;37.20;56.00;;;;;;5073413;28;20024;-62
2021/07/30 05:28:37;;;;;;;30.45;5.32;;;;;;;;;;5076266;28;20156;-62
2021/07/30 05:31:04;;;;;;;22.70;4.43;;;37.70;53.90;;;;;;5080555;28;20078;-62
2021/07/30 05:33:31;;;;;;;16.95;3.60;;;;;;;;;;5079150;28;20029;-63
2021/07/30 05:35:58;;;;;;;18.17;4.45;;;37.50;30.00;;;;;;5075805;28;20025;-62
2021/07/30 05:38:24;;;;;;;23.75;4.15;;;37.80;48.60;;;;;;5075885;28;20071;-61
2021/07/30 05:40:51;;;;;;;15.88;3.97;;;37.40;30.10;;;;;;5075029;28;20089;-62
2021/07/30 05:43:17;;;;;;;27.20;4.70;;;37.20;43.90;;;;;;5075950;28;21143;-63
2021/07/30 05:45:44;;;;;;;22.48;4.55;;;37.40;51.10;;;;;;5071544;28;20078;-64
2021/07/30 05:48:10;;;;;;;18.05;4.30;;;37.20;60.10;;;;;;5078523;28;20405;-63
2021/07/30 05:50:37;;;;;;;26.45;4.65;;;37.30;40.70;;;;;;5079138;28;20059;-61
2021/07/30 05:53:03;;;;;;;20.33;4.50;;;37.40;31.10;;;;;;5070691;28;20550;-60
2021/07/30 05:55:30;;;;;;;27.17;4.90;;;37.40;31.50;;;;;;5071291;28;20097;-61
2021/07/30 05:58:00;;;;;;;18.77;4.30;;;37.40;32.60;;;;;;5075943;28;20550;-61
2021/07/30 06:00:26;;;;;;;22.33;5.53;;;37.30;32.60;;;;;;5060331;28;20076;-62
2021/07/30 06:02:53;;;;;;;17.58;5.13;;;37.30;32.90;;;;;;5076974;28;20073;-61
2021/07/30 06:05:19;;;;;;;29.77;5.40;;;37.20;33.00;;;;;;5075137;28;20158;-61
2021/07/30 06:07:46;;;;;;;29.45;5.50;;;37.20;33.60;;;;;;5074382;28;20079;-62
2021/07/30 06:10:12;;;;;;;32.38;7.22;;;37.10;34.10;;;;;;5077535;28;20441;-61
2021/07/30 06:12:39;;;;;;;31.30;7.05;;;37.10;39.10;;;;;;5073200;28;20109;-60
2021/07/30 06:15:06;;;;;;;53.75;9.35;;;36.80;40.70;;;;;;5073115;28;20174;-61
2021/07/30 06:17:33;;;;;;;43.00;9.65;;;37.10;34.50;;;;;;5074445;28;20130;-62
2021/07/30 06:19:59;;;;;;;49.30;10.40;;;37.00;35.00;;;;;;5075005;28;20081;-62
2021/07/30 06:22:25;;;;;;;45.92;11.35;;;37.00;34.90;;;;;;5072138;28;20081;-62
2021/07/30 06:24:52;;;;;;;41.83;12.18;;;36.90;60.60;;;;;;5074692;28;20584;-61
2021/07/30 06:27:20;;;;;;;51.28;14.02;;;36.90;35.70;;;;;;5069462;28;20522;-62
2021/07/30 06:29:46;;;;;;;52.83;14.25;;;;;;;;;;5072157;28;20085;-62
2021/07/30 06:32:13;;;;;;;50.80;12.68;;;;;;;;;;5070662;28;20029;-62
2021/07/30 06:34:39;;;;;;;46.50;11.50;;;;;;;;;;5075924;28;20039;-65
2021/07/30 06:37:06;;;;;;;36.15;9.57;;;37.20;52.90;;;;;;5074563;28;20136;-64
2021/07/30 06:39:32;;;;;;;25.23;6.18;;;36.80;37.10;;;;;;5077467;28;20171;-61
2021/07/30 06:41:59;;;;;;;20.92;5.22;;;36.80;37.30;;;;;;5076183;28;20081;-61
2021/07/30 06:44:25;;;;;;;21.92;4.20;;;36.80;37.40;;;;;;5073812;28;20105;-61
2021/07/30 06:46:52;;;;;;;24.85;4.47;;;;;;;;;;5075154;28;20048;-62
2021/07/30 06:49:18;;;;;;;18.45;4.10;;;36.80;62.70;;;;;;5074003;28;20433;-61
2021/07/30 06:51:45;;;;;;;22.17;3.88;;;;;;;;;;5075432;28;20473;-60
2021/07/30 06:54:12;;;;;;;15.65;3.70;;;;;;;;;;5075087;28;20028;-63
2021/07/30 06:56:38;;;;;;;17.63;3.60;;;;;;;;;;5079783;28;20404;-63
2021/07/30 06:59:05;;;;;;;16.65;3.90;;;36.90;80.10;;;;;;5078127;28;20055;-60
2021/07/30 07:01:31;;;;;;;22.70;4.18;;;;;;;;;;5078624;28;20040;-60
2021/07/30 07:03:59;;;;;;;14.63;4.43;;;36.60;65.60;;;;;;5082118;28;20365;-60
2021/07/30 07:06:25;;;;;;;15.13;4.10;;;;;;;;;;5074394;28;20021;-61
2021/07/30 07:08:52;;;;;;;14.18;4.63;;;;;;;;;;5077083;28;20020;-60
2021/07/30 07:11:18;;;;;;;16.42;5.10;;;;;;;;;;5077590;28;20024;-60
2021/07/30 07:13:45;;;;;;;17.30;4.60;;;;;;;;;;5076401;28;20040;-62
2021/07/30 07:16:12;;;;;;;18.23;4.32;;;;;;;;;;5073501;28;20131;-61
2021/07/30 07:18:38;;;;;;;17.83;3.67;;;;;;;;;;5080083;28;20024;-61
2021/07/30 07:21:06;;;;;;;18.88;3.40;;;36.50;48.60;;;;;;5075715;28;20553;-61
2021/07/30 07:23:33;;;;;;;18.60;3.67;;;;;;;;;;5056248;28;20047;-60
2021/07/30 07:26:02;;;;;;;16.33;3.65;;;36.70;51.60;;;;;;5073923;28;20033;-64
2021/07/30 07:28:29;;;;;;;20.60;3.10;;;;;;;;;;5074568;28;20050;-60
2021/07/30 07:30:55;;;;;;;15.43;3.17;;;;;;;;;;5069413;28;20023;-61
2021/07/30 07:33:22;;;;;;;17.33;3.67;;;36.40;46.30;;;;;;5076819;28;20098;-60
2021/07/30 07:35:49;;;;;;;11.70;3.80;;;;;;;;;;5074323;28;20492;-62
2021/07/30 07:38:16;;;;;;;13.05;3.38;;;;;;;;;;5074584;28;20044;-62
2021/07/30 07:40:48;;;;;;;12.27;2.88;;;;;;;;;;5074016;28;20044;-63
2021/07/30 07:43:14;;;;;;;14.68;3.00;;;;;;;;;;5072868;28;20486;-60
2021/07/30 07:45:42;;;;;;;14.32;2.97;;;36.50;55.00;;;;;;5075766;28;20028;-62
2021/07/30 07:48:09;;;;;;;12.90;2.83;;;;;;;;;;5071708;28;20073;-62
2021/07/30 07:50:35;;;;;;;12.65;3.22;;;;;;;;;;5076657;28;20028;-62
2021/07/30 07:53:02;;;;;;;12.73;3.03;;;;;;;;;;5075476;28;20040;-62
2021/07/30 07:55:28;;;;;;;18.60;3.08;;;36.30;38.20;;;;;;5065170;23;20126;-62
2021/07/30 07:57:55;;;;;;;18.25;3.38;;;;;;;;;;5018024;28;20090;-60
2021/07/30 08:00:21;;;;;;;6.85;2.70;;;;;;;;;;5019753;28;20044;-61
2021/07/30 08:02:48;;;;;;;12.80;2.58;;;36.20;38.50;;;;;;5019580;28;20033;-60
2021/07/30 08:05:14;;;;;;;18.60;3.13;;;35.70;48.40;;;;;;5020965;28;20025;-60
2021/07/30 08:07:41;;;;;;;16.00;2.75;;;;;;;;;;5023955;28;20109;-60
2021/07/30 08:10:08;;;;;;;19.55;2.88;;;;;;;;;;5018744;28;20029;-61
2021/07/30 08:12:35;;;;;;;14.82;2.70;;;36.10;38.50;;;;;;5018936;28;20107;-62
2021/07/30 08:15:02;;;;;;;15.55;2.55;;;36.10;38.40;;;;;;5017810;28;20089;-61
2021/07/30 08:17:31;;;;;;;10.48;2.53;;;36.10;39.10;;;;;;5018339;28;20094;-61
2021/07/30 08:19:57;;;;;;;16.27;3.03;;;36.10;39.50;;;;;;5020481;28;20081;-63
2021/07/30 08:22:24;;;;;;;15.13;2.70;;;36.00;39.00;;;;;;5018728;28;20078;-62
2021/07/30 08:24:50;;;;;;;18.17;3.42;;;36.00;39.10;;;;;;5021161;28;20528;-63
2021/07/30 08:27:17;;;;;;;11.15;2.25;;;36.00;39.30;;;;;;5016489;28;20587;-62
2021/07/30 08:29:44;;;;;;;16.92;2.83;;;35.90;39.90;;;;;;5013645;28;20443;-60
2021/07/30 08:32:11;;;;;;;16.40;3.03;;;36.00;39.90;;;;;;5017998;28;20143;-61
2021/07/30 08:34:39;;;;;;;13.82;2.72;;;35.90;39.70;;;;;;5019153;28;20141;-61
2021/07/30 08:37:06;;;;;;;10.23;2.58;;;35.90;39.80;;;;;;5016842;28;20582;-61
2021/07/30 08:39:36;;;;;;;8.05;2.58;;;35.90;39.70;;;;;;5017799;28;20074;-62
2021/07/30 08:42:04;;;;;;;15.00;2.78;;;35.90;39.80;;;;;;5019026;28;20073;-63
2021/07/30 08:44:32;;;;;;;13.82;2.22;;;35.90;39.90;;;;;;5016190;28;20118;-63
2021/07/30 08:46:59;;;;;;;12.43;2.65;;;35.90;39.80;;;;;;5016784;28;20116;-61
2021/07/30 08:49:33;;;;;;;11.75;2.90;;;35.80;39.90;;;;;;5018198;28;20074;-62
2021/07/30 08:52:10;;;;;;;12.35;2.95;;;35.80;39.80;;;;;;5016507;28;20129;-62
2021/07/30 08:54:37;;;;;;;25.92;3.10;;;35.80;40.00;;;;;;5020262;28;20078;-63
2021/07/30 08:57:11;;;;;;;13.15;3.00;;;35.70;40.00;;;;;;5018908;28;20130;-62
2021/07/30 08:59:39;;;;;;;10.65;2.83;;;35.70;40.10;;;;;;5016761;28;20541;-61
2021/07/30 09:02:07;;;;;;;10.48;2.70;;;35.70;40.60;;;;;;5017891;28;20161;-63
2021/07/30 09:04:33;;;;;;;15.45;2.92;;;35.60;40.80;;;;;;5018605;28;20127;-61
2021/07/30 09:07:02;;;;;;;10.95;2.58;;;35.60;41.30;;;;;;5020309;28;20093;-61
2021/07/30 09:09:31;;;;;;;8.18;2.65;;;35.60;41.20;;;;;;5017511;28;20491;-60
2021/07/30 09:12:00;;;;;;;8.95;3.15;;;35.50;41.20;;;;;;5016199;28;20077;-61
2021/07/30 09:14:38;;;;;;;12.98;3.10;;;35.50;41.40;;;;;;5017111;28;20105;-61
2021/07/30 09:17:05;;;;;;;12.90;2.50;;;35.50;41.00;;;;;;5018042;28;20425;-62
2021/07/30 09:19:33;;;;;;;11.73;2.92;;;35.40;41.60;;;;;;5016496;28;20539;-62
2021/07/30 09:22:06;;;;;;;15.25;2.90;;;35.30;41.20;;;;;;5015396;28;20482;-61
2021/07/30 09:24:38;;;;;;;10.45;2.88;;;35.30;41.30;;;;;;5021219;28;20094;-58
2021/07/30 09:27:09;;;;;;;15.13;3.47;;;35.20;41.30;;;;;;5023331;28;20083;-61
2021/07/30 09:29:37;;;;;;;15.63;3.55;;;35.20;41.50;;;;;;5019724;28;20066;-61
2021/07/30 09:32:12;;;;;;;13.68;3.30;;;35.20;41.60;;;;;;5019727;28;20536;-61
2021/07/30 09:34:43;;;;;;;11.60;3.30;;;35.10;42.40;;;;;;5021166;28;20069;-61
2021/07/30 09:37:13;;;;;;;10.43;4.13;;;35.00;41.80;;;;;;5021174;28;20186;-61
2021/07/30 09:39:46;;;;;;;12.55;3.38;;;35.00;41.80;;;;;;5018688;28;20104;-61
2021/07/30 09:42:13;;;;;;;15.43;3.75;;;34.90;65.40;;;;;;5017253;28;20096;-63
2021/07/30 09:44:52;;;;;;;10.00;2.97;;;34.90;42.60;;;;;;5018560;28;20046;-61
2021/07/30 09:47:24;;;;;;;10.38;2.90;;;35.00;42.60;;;;;;5017457;28;20512;-61
2021/07/30 09:50:01;;;;;;;10.77;2.50;;;34.90;42.90;;;;;;5018904;28;20067;-62
2021/07/30 09:52:36;;;;;;;14.25;2.75;;;35.00;42.90;;;;;;5017833;28;20081;-61
2021/07/30 09:55:05;;;;;;;13.68;2.28;;;35.00;42.90;;;;;;5020296;28;20105;-61
2021/07/30 09:57:37;;;;;;;8.70;2.00;;;34.90;43.20;;;;;;5018716;28;20152;-60
2021/07/30 10:00:07;;;;;;;9.98;2.65;;;34.90;43.40;;;;;;5021073;28;20552;-62
2021/07/30 10:02:36;;;;;;;6.15;1.98;;;34.80;43.40;;;;;;5020517;28;20590;-60
2021/07/30 10:05:05;;;;;;;8.20;2.42;;;34.80;82.70;;;;;;5022003;28;20566;-61
2021/07/30 10:07:33;;;;;;;11.07;2.55;;;34.80;43.00;;;;;;5017854;28;20106;-61
2021/07/30 10:10:08;;;;;;;10.98;3.88;;;34.80;43.60;;;;;;5020097;28;20071;-62
2021/07/30 10:12:37;;;;;;;47.10;25.73;;;34.70;43.50;;;;;;5018418;28;20530;-63
2021/07/30 10:15:07;;;;;;;65.78;35.35;;;34.70;43.30;;;;;;5018704;28;20090;-61
2021/07/30 10:17:35;;;;;;;67.65;36.92;;;34.70;43.40;;;;;;5016702;28;20094;-60
2021/07/30 10:20:06;;;;;;;60.67;31.42;;;34.60;43.80;;;;;;5018711;28;20074;-62
2021/07/30 10:22:53;;;;;;;41.40;22.98;;;34.70;44.40;;;;;;5016862;28;20079;-60
2021/07/30 10:25:41;;;;;;;26.40;11.93;;;34.60;45.20;;;;;;5016107;28;20109;-61
2021/07/30 10:28:12;;;;;;;21.38;9.02;;;34.50;47.40;;;;;;5018670;28;20461;-59
2021/07/30 10:30:54;;;;;;;16.77;5.60;;;34.40;48.00;;;;;;5016223;28;20102;-61
2021/07/30 10:33:40;;;;;;;13.68;3.38;;;34.50;48.30;;;;;;5034959;28;20082;-61
2021/07/30 10:36:09;;;;;;;21.00;3.58;;;34.30;48.70;;;;;;5020486;28;20097;-61
2021/07/30 10:38:37;;;;;;;13.02;2.90;;;33.90;60.10;;;;;;5016438;28;20057;-62
2021/07/30 10:41:06;;;;;;;18.60;4.10;;;34.00;50.70;;;;;;5014984;28;20120;-61
2021/07/30 10:44:01;;;;;;;15.45;3.45;;;33.90;51.30;;;;;;5017973;28;20074;-61
2021/07/30 10:46:29;;;;;;;15.40;3.60;;;33.70;51.80;;;;;;5016711;28;20101;-61
2021/07/30 10:48:56;;;;;;;12.77;3.30;;;;;;;;;;5019612;28;20084;-61
2021/07/30 10:51:27;;;;;;;19.63;4.43;;;33.50;70.20;;;;;;5017851;28;20025;-59
2021/07/30 10:54:03;;;;;;;15.48;3.72;;;33.50;55.70;;;;;;5015927;28;20631;-61
2021/07/30 10:56:32;;;;;;;14.55;3.65;;;33.40;53.40;;;;;;5018785;28;20117;-61
2021/07/30 10:58:59;;;;;;;10.90;2.92;;;33.40;53.50;;;;;;5016063;28;20097;-61
2021/07/30 11:01:28;;;;;;;8.85;3.13;;;33.40;53.60;;;;;;5016457;28;20067;-61
2021/07/30 11:03:56;;;;;;;17.60;3.00;;;33.40;53.70;;;;;;5018186;28;20108;-61
2021/07/30 11:06:32;;;;;;;15.30;3.80;;;33.30;53.70;;;;;;5019918;28;20078;-60
2021/07/30 11:11:39;;;;;;;20.30;6.43;;;33.30;54.10;;;;;;5018272;28;20161;-61
2021/07/30 11:14:19;;;;;;;22.55;7.95;;;33.30;54.10;;;;;;5019162;28;20077;-61
2021/07/30 11:16:46;;;;;;;31.33;12.57;;;33.30;53.50;;;;;;5014410;28;20026;-61
2021/07/30 11:19:14;;;;;;;36.22;13.93;;;33.20;53.60;;;;;;5016333;28;20085;-61
2021/07/30 11:21:41;;;;;;;43.45;16.63;;;33.20;53.80;;;;;;5014827;28;20655;-60
2021/07/30 11:24:09;;;;;;;45.95;18.67;;;33.10;54.10;;;;;;5017585;28;20543;-61
2021/07/30 11:26:38;;;;;;;49.70;18.73;;;32.80;81.30;;;;;;5017248;28;20084;-60
2021/07/30 11:29:13;;;;;;;42.58;18.08;;;33.10;60.80;;;;;;5015109;28;20079;-60
2021/07/30 11:32:03;;;;;;;39.60;16.00;;;33.00;54.20;;;;;;5015128;28;20082;-62
2021/07/30 11:34:36;;;;;;;38.40;14.10;;;33.10;54.00;;;;;;5015826;28;20117;-60
2021/07/30 11:37:04;;;;;;;33.67;14.20;;;33.10;54.00;;;;;;5015480;28;20532;-62
2021/07/30 11:39:35;;;;;;;28.85;10.45;;;33.10;54.00;;;;;;5016386;28;20081;-62
2021/07/30 11:42:02;;;;;;;24.65;10.25;;;33.10;53.80;;;;;;5017484;28;20078;-61
2021/07/30 11:44:28;;;;;;;24.75;9.57;;;33.10;53.90;;;;;;5017352;28;20081;-61
2021/07/30 11:46:56;;;;;;;21.88;8.90;;;33.00;54.10;;;;;;5018256;28;20085;-61
2021/07/30 11:49:34;;;;;;;22.92;9.48;;;33.00;54.40;;;;;;5015708;28;20093;-60
2021/07/30 11:52:04;;;;;;;23.67;9.40;;;33.00;54.50;;;;;;5013865;28;20116;-59
2021/07/30 11:54:31;;;;;;;25.70;9.75;;;33.00;54.50;;;;;;5016049;28;20430;-61
2021/07/30 11:56:58;;;;;;;28.63;10.20;;;32.90;54.80;;;;;;5017323;28;20117;-61
2021/07/30 11:59:25;;;;;;;29.35;9.88;;;32.60;71.30;;;;;;5012582;28;20082;-60
2021/07/30 12:02:02;;;;;;;24.23;9.95;;;32.70;78.60;;;;;;5016526;28;20089;-63
2021/07/30 12:04:29;;;;;;;25.98;9.15;;;;;;;;;;5015002;28;20161;-61
2021/07/30 12:06:58;;;;;;;22.05;8.60;;;33.00;76.80;;;;;;5018251;28;20030;-62
2021/07/30 12:09:27;;;;;;;24.25;8.32;;;32.90;55.40;;;;;;5017596;28;21343;-61
2021/07/30 12:11:57;;;;;;;18.55;7.07;;;32.90;55.20;;;;;;5015852;28;20085;-61
2021/07/30 12:14:25;;;;;;;21.70;6.38;;;32.90;55.20;;;;;;5019633;28;20227;-62
2021/07/30 12:16:53;;;;;;;18.73;6.15;;;32.80;55.30;;;;;;5018653;28;20168;-61
2021/07/30 12:19:37;;;;;;;20.15;6.05;;;32.80;55.30;;;;;;5014346;28;20209;-61
2021/07/30 12:22:07;;;;;;;19.08;7.43;;;32.90;55.20;;;;;;5015472;28;20157;-60
2021/07/30 12:24:45;;;;;;;23.52;9.80;;;32.50;92.10;;;;;;5013414;28;20486;-61
2021/07/30 12:27:19;;;;;;;23.23;9.45;;;32.90;84.30;;;;;;5014456;28;20074;-60
2021/07/30 12:29:47;;;;;;;31.63;9.07;;;32.80;86.10;;;;;;5013300;28;20089;-60
2021/07/30 12:32:18;;;;;;;19.98;7.47;;;32.80;55.10;;;;;;5017780;28;20047;-63
2021/07/30 12:34:57;;;;;;;19.85;8.27;;;32.80;54.70;;;;;;5015118;28;21268;-61
2021/07/30 12:37:25;;;;;;;17.33;7.30;;;32.80;54.60;;;;;;5015956;28;20130;-60
2021/07/30 12:39:53;;;;;;;20.50;8.30;;;32.80;54.50;;;;;;5017226;28;20070;-60
2021/07/30 12:42:37;;;;;;;22.92;8.77;;;32.40;55.70;;;;;;5013358;28;20081;-61
2021/07/30 12:45:14;;;;;;;21.92;7.20;;;32.80;54.40;;;;;;5018071;28;20078;-62
2021/07/30 12:48:01;;;;;;;14.70;6.00;;;32.80;54.60;;;;;;5018651;28;20097;-62
2021/07/30 12:50:35;;;;;;;17.33;3.85;;;32.80;55.10;;;;;;5015434;28;20114;-62
2021/07/30 12:53:13;;;;;;;10.68;3.30;;;32.80;55.10;;;;;;5015051;28;20108;-59
2021/07/30 12:56:15;;;;;;;14.70;3.28;;;32.80;55.10;;;;;;5015059;28;20106;-59